createdAt,value
2023-01-29T00:00:16.310Z,1877.00
2023-01-29T00:01:15.899Z,1854.00
2023-01-29T00:02:15.936Z,1870.00
2023-01-29T00:03:15.968Z,1859.00
2023-01-29T00:04:15.894Z,1873.00
2023-01-29T00:05:27.502Z,1838.00
2023-01-29T00:06:16.890Z,1818.00
2023-01-29T00:07:15.864Z,1810.00
2023-01-29T00:08:15.851Z,1802.00
2023-01-29T00:09:15.918Z,1796.00
2023-01-29T00:10:16.150Z,1769.00
2023-01-29T00:11:15.812Z,1739.00
2023-01-29T00:12:15.773Z,1731.00
2023-01-29T00:13:15.761Z,1740.00
2023-01-29T00:14:15.757Z,1763.00
2023-01-29T00:15:15.734Z,1752.00
2023-01-29T00:16:15.713Z,1747.00
2023-01-29T00:17:15.774Z,1728.00
2023-01-29T00:18:15.695Z,1736.00
2023-01-29T00:19:15.683Z,1722.00
2023-01-29T00:20:16.002Z,1737.00
2023-01-29T00:21:15.649Z,1758.00
2023-01-29T00:22:15.611Z,1781.00
2023-01-29T00:23:15.591Z,1777.00
2023-01-29T00:24:15.619Z,1835.00
2023-01-29T00:25:15.552Z,1837.00
2023-01-29T00:43:15.546Z,1833.00
2023-01-29T00:44:15.559Z,1829.00
2023-01-29T00:45:15.556Z,1838.00
2023-01-29T00:46:15.587Z,1797.00
2023-01-29T00:47:15.575Z,1790.00
2023-01-29T00:48:15.588Z,1770.00
2023-01-29T00:49:15.584Z,1779.00
2023-01-29T00:50:15.894Z,1754.00
2023-01-29T00:51:15.584Z,1762.00
2023-01-29T00:52:15.606Z,1773.00
2023-01-29T00:53:15.595Z,1744.00
2023-01-29T00:54:15.606Z,1772.00
2023-01-29T00:55:15.585Z,1817.00
2023-01-29T00:56:16.574Z,1774.00
2023-01-29T00:57:15.589Z,1787.00
2023-01-29T00:58:15.675Z,1805.00
2023-01-29T00:59:15.614Z,1791.00
2023-01-29T01:00:16.008Z,1771.00
2023-01-29T01:01:15.678Z,1759.00
2023-01-29T01:02:15.718Z,1724.00
2023-01-29T01:03:15.683Z,1764.00
2023-01-29T01:04:15.717Z,1774.00
2023-01-29T01:05:15.739Z,1799.00
2023-01-29T01:06:15.747Z,1771.00
2023-01-29T01:07:15.769Z,1747.00
2023-01-29T01:28:16.121Z,1661.00
2023-01-29T01:53:21.219Z,1629.00
2023-01-29T01:54:21.447Z,1669.00
2023-01-29T01:55:21.690Z,1673.00
2023-01-29T01:56:21.937Z,1633.00
2023-01-29T01:57:22.184Z,1636.00
2023-01-29T01:58:22.459Z,1659.00
2023-01-29T01:59:22.776Z,1628.00
2023-01-29T02:00:22.939Z,1671.00
2023-01-29T02:01:25.651Z,1627.00
2023-01-29T02:02:23.383Z,1611.00
2023-01-29T02:03:23.376Z,1594.00
2023-01-29T02:04:23.384Z,1530.00
2023-01-29T02:05:23.420Z,1530.00
2023-01-29T02:06:23.469Z,1554.00
2023-01-29T02:07:23.494Z,1556.00
2023-01-29T02:08:23.541Z,1556.00
2023-01-29T02:09:23.580Z,1544.00
2023-01-29T02:10:23.613Z,1515.00
2023-01-29T02:11:23.643Z,1490.00
2023-01-29T02:12:23.749Z,1497.00
2023-01-29T02:13:23.708Z,1503.00
2023-01-29T02:14:23.705Z,1480.00
2023-01-29T02:15:23.741Z,1488.00
2023-01-29T02:16:23.764Z,1527.00
2023-01-29T02:17:23.865Z,1520.00
2023-01-29T02:18:23.832Z,1513.00
2023-01-29T02:19:23.866Z,1527.00
2023-01-29T02:20:23.890Z,1479.00
2023-01-29T02:21:23.933Z,1471.00
2023-01-29T02:22:23.961Z,1533.00
2023-01-29T02:23:24.010Z,1558.00
2023-01-29T02:24:24.057Z,1560.00
2023-01-29T02:25:24.102Z,1532.00
2023-01-29T03:20:31.197Z,1325.00
2023-01-29T03:21:31.433Z,1272.00
2023-01-29T03:22:31.633Z,1353.00
2023-01-29T03:23:31.848Z,1314.00
2023-01-29T03:24:32.143Z,1320.00
2023-01-29T03:25:32.349Z,1237.00
2023-01-29T03:26:32.562Z,1232.00
2023-01-29T03:27:32.803Z,1236.00
2023-01-29T03:28:33.062Z,1255.00
2023-01-29T03:29:33.310Z,1269.00
2023-01-29T04:02:41.103Z,1266.00
2023-01-29T04:03:41.348Z,1236.00
2023-01-29T04:04:41.578Z,1284.00
2023-01-29T04:05:41.811Z,1268.00
2023-01-29T04:06:42.048Z,1244.00
2023-01-29T04:07:42.280Z,1250.00
2023-01-29T04:08:42.525Z,1242.00
2023-01-29T04:09:42.708Z,1219.00
2023-01-29T04:10:42.998Z,1218.00
2023-01-29T04:11:43.237Z,1191.00
2023-01-29T04:12:43.446Z,1171.00
2023-01-29T04:13:43.705Z,1162.00
2023-01-29T04:14:43.916Z,1136.00
2023-01-29T04:15:44.153Z,1118.00
2023-01-29T04:16:44.432Z,1157.00
2023-01-29T04:17:44.643Z,1129.00
2023-01-29T04:18:44.864Z,1133.00
2023-01-29T04:19:45.114Z,1162.00
2023-01-29T04:20:45.364Z,1166.00
2023-01-29T04:44:51.177Z,1187.00
2023-01-29T04:45:51.443Z,1153.00
2023-01-29T04:46:51.708Z,1130.00
2023-01-29T04:47:51.962Z,1146.00
2023-01-29T04:48:52.231Z,1170.00
2023-01-29T04:49:52.486Z,1150.00
2023-01-29T05:26:01.084Z,886.00
2023-01-29T05:27:01.309Z,871.00
2023-01-29T05:28:01.573Z,899.00
2023-01-29T05:29:01.795Z,920.00
2023-01-29T05:30:02.047Z,915.00
2023-01-29T05:31:02.388Z,883.00
2023-01-29T05:32:02.562Z,872.00
2023-01-29T05:33:02.815Z,874.00
2023-01-29T05:34:03.030Z,881.00
2023-01-29T05:35:03.254Z,850.00
2023-01-29T05:36:04.123Z,869.00
2023-01-29T05:37:03.478Z,875.00
2023-01-29T05:38:03.499Z,868.00
2023-01-29T05:39:03.522Z,863.00
2023-01-29T05:40:03.532Z,853.00
2023-01-29T05:41:03.567Z,822.00
2023-01-29T05:42:03.600Z,820.00
2023-01-29T05:43:03.611Z,823.00
2023-01-29T05:44:03.649Z,824.00
2023-01-29T05:45:03.700Z,829.00
2023-01-29T05:46:03.838Z,825.00
2023-01-29T05:47:03.816Z,868.00
2023-01-29T05:48:03.760Z,896.00
2023-01-29T05:49:03.791Z,917.00
2023-01-29T05:50:03.830Z,936.00
2023-01-29T05:51:04.612Z,944.00
2023-01-29T05:52:03.875Z,896.00
2023-01-29T05:53:03.931Z,859.00
2023-01-29T05:54:03.945Z,865.00
2023-01-29T05:55:03.986Z,878.00
2023-01-29T05:56:04.009Z,853.00
2023-01-29T05:57:04.023Z,889.00
2023-01-29T05:58:05.893Z,910.00
2023-01-29T05:59:04.081Z,874.00
2023-01-29T06:00:04.112Z,868.00
2023-01-29T06:01:04.138Z,575.00
2023-01-29T06:02:04.261Z,452.00
2023-01-29T06:03:04.323Z,497.00
2023-01-29T06:04:04.274Z,555.00
2023-01-29T06:05:04.394Z,545.00
2023-01-29T06:06:04.369Z,400.00
2023-01-29T06:07:04.424Z,400.00
2023-01-29T06:08:04.477Z,465.00
2023-01-29T06:09:04.562Z,524.00
2023-01-29T06:10:04.602Z,490.00
2023-01-29T06:11:04.667Z,400.00
2023-01-29T06:12:04.696Z,400.00
2023-01-29T06:13:04.767Z,400.00
2023-01-29T06:14:04.817Z,400.00
2023-01-29T06:15:04.852Z,400.00
2023-01-29T06:16:04.892Z,400.00
2023-01-29T06:17:04.915Z,400.00
2023-01-29T06:18:04.962Z,400.00
2023-01-29T06:19:05.084Z,400.00
2023-01-29T06:20:05.185Z,417.00
2023-01-29T06:21:05.182Z,498.00
2023-01-29T06:22:05.181Z,500.00
2023-01-29T06:23:05.225Z,558.00
2023-01-29T06:24:05.299Z,541.00
2023-01-29T06:25:05.327Z,539.00
2023-01-29T06:26:05.361Z,534.00
2023-01-29T06:27:05.458Z,495.00
2023-01-29T06:28:05.391Z,498.00
2023-01-29T06:29:05.406Z,505.00
2023-01-29T06:30:05.429Z,497.00
2023-01-29T06:31:22.045Z,500.00
2023-01-29T06:32:06.585Z,501.00
2023-01-29T06:33:05.517Z,508.00
2023-01-29T06:34:05.524Z,504.00
2023-01-29T06:35:05.542Z,503.00
2023-01-29T06:36:05.550Z,488.00
2023-01-29T06:37:05.573Z,502.00
2023-01-29T06:38:05.599Z,500.00
2023-01-29T06:39:05.613Z,517.00
2023-01-29T06:40:05.640Z,536.00
2023-01-29T06:41:05.663Z,578.00
2023-01-29T06:42:05.687Z,560.00
2023-01-29T06:43:05.706Z,570.00
2023-01-29T06:44:05.705Z,840.00
2023-01-29T06:45:05.725Z,813.00
2023-01-29T06:46:05.738Z,659.00
2023-01-29T06:47:05.782Z,758.00
2023-01-29T06:48:05.754Z,695.00
2023-01-29T06:49:05.788Z,617.00
2023-01-29T06:50:05.833Z,603.00
2023-01-29T06:51:06.006Z,558.00
2023-01-29T06:52:06.182Z,533.00
2023-01-29T06:53:06.478Z,545.00
2023-01-29T06:54:06.735Z,526.00
2023-01-29T06:55:06.982Z,556.00
2023-01-29T06:56:07.238Z,538.00
2023-01-29T06:57:07.484Z,551.00
2023-01-29T06:58:07.762Z,500.00
2023-01-29T06:59:08.010Z,501.00
2023-01-29T07:00:08.258Z,508.00
2023-01-29T07:01:08.554Z,505.00
2023-01-29T07:02:08.804Z,526.00
2023-01-29T07:03:08.979Z,545.00
2023-01-29T07:04:09.207Z,523.00
2023-01-29T07:05:09.477Z,517.00
2023-01-29T07:06:09.710Z,526.00
2023-01-29T07:07:09.965Z,501.00
2023-01-29T07:12:11.283Z,558.00
2023-01-29T07:13:11.535Z,558.00
2023-01-29T07:14:11.789Z,566.00
2023-01-29T07:15:12.047Z,569.00
2023-01-29T07:16:12.332Z,585.00
2023-01-29T07:54:21.100Z,520.00
2023-01-29T07:55:21.358Z,556.00
2023-01-29T07:56:21.607Z,575.00
2023-01-29T07:57:21.940Z,617.00
2023-01-29T07:58:22.160Z,654.00
2023-01-29T07:59:22.432Z,555.00
2023-01-29T08:00:22.700Z,513.00
2023-01-29T08:01:23.079Z,527.00
2023-01-29T08:02:23.411Z,530.00
2023-01-29T08:03:23.586Z,535.00
2023-01-29T08:04:23.864Z,570.00
2023-01-29T08:05:24.138Z,565.00
2023-01-29T08:06:24.408Z,586.00
2023-01-29T08:07:24.681Z,554.00
2023-01-29T08:08:24.954Z,555.00
2023-01-29T08:09:25.230Z,574.00
2023-01-29T08:10:25.483Z,590.00
2023-01-29T08:11:25.781Z,611.00
2023-01-29T08:12:26.040Z,591.00
2023-01-29T08:13:26.314Z,553.00
2023-01-29T08:14:26.587Z,559.00
2023-01-29T08:15:26.847Z,554.00
2023-01-29T08:16:27.171Z,540.00
2023-01-29T08:17:27.394Z,551.00
2023-01-29T08:18:27.724Z,546.00
2023-01-29T08:19:27.926Z,558.00
2023-01-29T08:20:28.356Z,571.00
2023-01-29T08:21:28.344Z,582.00
2023-01-29T08:22:28.725Z,589.00
2023-01-29T08:23:28.995Z,593.00
2023-01-29T08:24:41.535Z,596.00
2023-01-29T08:25:30.361Z,597.00
2023-01-29T08:26:29.332Z,598.00
2023-01-29T08:27:29.366Z,585.00
2023-01-29T08:28:29.381Z,556.00
2023-01-29T08:29:29.421Z,567.00
2023-01-29T08:30:29.454Z,559.00
2023-01-29T08:31:29.581Z,556.00
2023-01-29T08:32:29.507Z,557.00
2023-01-29T08:33:38.714Z,562.00
2023-01-29T08:54:31.112Z,551.00
2023-01-29T08:55:31.179Z,583.00
2023-01-29T08:56:31.225Z,597.00
2023-01-29T08:57:31.262Z,600.00
2023-01-29T08:58:31.373Z,593.00
2023-01-29T08:59:31.412Z,620.00
2023-01-29T09:00:31.520Z,626.00
2023-01-29T09:01:31.816Z,589.00
2023-01-29T09:02:31.981Z,540.00
2023-01-29T09:03:32.160Z,517.00
2023-01-29T09:04:32.396Z,500.00
2023-01-29T09:05:32.638Z,520.00
2023-01-29T09:06:32.880Z,559.00
2023-01-29T09:07:33.119Z,602.00
2023-01-29T09:08:33.368Z,647.00
2023-01-29T09:09:33.564Z,763.00
2023-01-29T09:10:33.719Z,584.00
2023-01-29T09:11:34.038Z,533.00
2023-01-29T09:12:34.307Z,500.00
2023-01-29T09:13:34.532Z,498.00
2023-01-29T09:14:34.734Z,500.00
2023-01-29T09:15:34.937Z,518.00
2023-01-29T09:16:35.275Z,503.00
2023-01-29T09:17:35.543Z,510.00
2023-01-29T09:40:41.186Z,599.00
2023-01-29T09:41:41.524Z,567.00
2023-01-29T09:42:41.769Z,555.00
2023-01-29T09:43:42.004Z,564.00
2023-01-29T09:44:42.204Z,533.00
2023-01-29T09:45:42.433Z,548.00
2023-01-29T09:46:42.661Z,537.00
2023-01-29T09:47:42.995Z,538.00
2023-01-29T09:48:43.212Z,497.00
2023-01-29T09:49:43.458Z,500.00
2023-01-29T09:50:43.796Z,501.00
2023-01-29T09:51:44.013Z,511.00
2023-01-29T09:52:44.326Z,537.00
2023-01-29T10:21:51.212Z,576.00
2023-01-29T10:23:51.544Z,502.00
2023-01-29T11:06:01.223Z,823.00
2023-01-29T11:07:01.458Z,796.00
2023-01-29T11:08:01.666Z,767.00
2023-01-29T11:09:01.978Z,762.00
2023-01-29T11:10:02.169Z,644.00
2023-01-29T11:11:02.415Z,616.00
2023-01-29T11:12:02.587Z,566.00
2023-01-29T11:13:02.833Z,500.00
2023-01-29T11:14:03.080Z,500.00
2023-01-29T11:15:03.272Z,499.00
2023-01-29T11:16:03.482Z,547.00
2023-01-29T11:17:03.783Z,666.00
2023-01-29T11:18:03.947Z,840.00
2023-01-29T11:19:04.130Z,920.00
2023-01-29T11:20:04.322Z,679.00
2023-01-29T11:21:04.533Z,609.00
2023-01-29T11:22:04.728Z,633.00
2023-01-29T11:23:06.760Z,638.00
2023-01-29T11:24:05.087Z,619.00
2023-01-29T12:03:11.209Z,538.00
2023-01-29T12:04:11.371Z,483.00
2023-01-29T12:05:11.595Z,492.00
2023-01-29T12:06:11.937Z,535.00
2023-01-29T12:07:12.055Z,559.00
2023-01-29T12:08:12.199Z,580.00
2023-01-29T12:09:12.459Z,557.00
2023-01-29T12:53:21.205Z,1565.00
2023-01-29T12:54:21.428Z,1698.00
2023-01-29T12:55:22.148Z,1749.00
2023-01-29T13:51:31.279Z,2398.00
2023-01-29T13:52:31.372Z,2432.00
2023-01-29T13:53:31.609Z,2349.00
2023-01-29T13:54:31.787Z,2413.00
2023-01-29T13:55:31.972Z,2440.00
2023-01-29T13:56:32.155Z,2345.00
2023-01-29T13:57:32.364Z,2552.00
2023-01-29T13:58:32.552Z,2774.00
2023-01-29T13:59:32.749Z,2779.00
2023-01-29T14:00:32.944Z,2655.00
2023-01-29T14:01:33.168Z,2637.00
2023-01-29T14:02:33.384Z,2552.00
2023-01-29T14:03:56.125Z,2522.00
2023-01-29T14:05:33.367Z,2362.00
2023-01-29T14:06:33.294Z,2310.00
2023-01-29T14:07:33.216Z,2265.00
2023-01-29T14:08:33.193Z,2256.00
2023-01-29T14:09:33.126Z,2351.00
2023-01-29T14:10:33.037Z,2503.00
2023-01-29T14:11:32.958Z,2405.00
2023-01-29T14:12:33.111Z,2445.00
2023-01-29T14:13:33.267Z,2410.00
2023-01-29T14:50:41.061Z,3083.00
2023-01-29T14:51:41.247Z,3266.00
2023-01-29T14:52:41.451Z,3424.00
2023-01-29T14:53:41.671Z,3390.00
2023-01-29T14:54:41.881Z,3353.00
2023-01-29T14:55:42.107Z,3238.00
2023-01-29T14:56:42.319Z,3173.00
2023-01-29T14:57:42.521Z,3326.00
2023-01-29T14:58:42.741Z,3406.00
2023-01-29T14:59:42.945Z,3327.00
2023-01-29T15:00:43.183Z,3468.00
2023-01-29T15:01:43.473Z,3505.00
2023-01-29T15:02:43.701Z,3490.00
2023-01-29T15:03:43.898Z,3326.00
2023-01-29T15:04:44.104Z,3488.00
2023-01-29T15:05:44.324Z,3565.00
2023-01-29T15:06:44.520Z,3575.00
2023-01-29T15:07:44.736Z,3633.00
2023-01-29T15:08:44.951Z,3672.00
2023-01-29T15:09:45.233Z,3692.00
2023-01-29T15:10:45.366Z,3792.00
2023-01-29T15:11:45.570Z,3774.00
2023-01-29T15:12:45.789Z,3946.00
2023-01-29T15:13:45.989Z,4183.00
2023-01-29T15:14:46.190Z,4288.00
2023-01-29T15:15:46.445Z,4149.00
2023-01-29T15:16:46.644Z,3995.00
2023-01-29T15:17:46.867Z,3934.00
2023-01-29T15:18:47.076Z,3718.00
2023-01-29T15:19:47.299Z,3801.00
2023-01-29T15:20:47.517Z,3819.00
2023-01-29T15:21:47.728Z,3804.00
2023-01-29T15:22:47.949Z,3793.00
2023-01-29T15:23:48.165Z,3864.00
2023-01-29T15:24:48.378Z,3857.00
2023-01-29T15:25:48.597Z,3879.00
2023-01-29T15:26:48.859Z,4026.00
2023-01-29T15:27:48.977Z,4115.00
2023-01-29T15:28:58.512Z,4031.00
2023-01-29T15:29:50.137Z,3916.00
2023-01-29T15:30:49.169Z,3705.00
2023-01-29T15:31:49.185Z,3544.00
2023-01-29T15:32:48.964Z,3573.00
2023-01-29T15:33:49.027Z,3726.00
2023-01-29T15:34:48.958Z,3703.00
2023-01-29T15:35:51.645Z,3620.00
2023-01-29T15:36:48.861Z,3540.00
2023-01-29T15:37:48.785Z,3626.00
2023-01-29T15:38:48.752Z,3651.00
2023-01-29T15:39:48.685Z,3560.00
2023-01-29T15:40:48.613Z,3420.00
2023-01-29T15:41:48.687Z,3482.00
2023-01-29T15:42:48.706Z,3568.00
2023-01-29T15:43:48.588Z,3629.00
2023-01-29T15:44:48.517Z,3848.00
2023-01-29T15:45:48.455Z,3869.00
2023-01-29T15:46:48.370Z,3828.00
2023-01-29T15:47:48.346Z,3824.00
2023-01-29T15:48:48.272Z,3789.00
2023-01-29T15:49:48.448Z,3797.00
2023-01-29T15:50:48.656Z,3765.00
2023-01-29T15:51:48.882Z,3959.00
2023-01-29T15:52:49.008Z,4330.00
2023-01-29T15:53:49.237Z,4131.00
2023-01-29T15:54:49.464Z,4032.00
2023-01-29T15:55:49.711Z,4166.00
2023-01-29T15:56:49.862Z,4299.00
2023-01-29T15:57:50.086Z,4241.00
2023-01-29T15:58:50.323Z,4188.00
2023-01-29T15:59:50.459Z,4040.00
2023-01-29T16:00:50.686Z,3863.00
2023-01-29T16:01:50.947Z,3889.00
2023-01-29T16:02:51.197Z,3953.00
2023-01-29T16:03:51.430Z,4010.00
2023-01-29T16:04:51.577Z,4221.00
2023-01-29T16:05:51.833Z,4346.00
2023-01-29T16:06:51.983Z,4166.00
2023-01-29T16:07:52.244Z,4303.00
2023-01-29T16:08:52.396Z,4357.00
2023-01-29T16:09:52.638Z,4283.00
2023-01-29T16:10:52.787Z,4136.00
2023-01-29T16:11:53.030Z,4154.00
2023-01-29T16:12:53.268Z,4179.00
2023-01-29T16:13:53.409Z,4132.00
2023-01-29T16:14:53.670Z,4483.00
2023-01-29T16:15:53.930Z,4463.00
2023-01-29T16:16:54.109Z,4375.00
2023-01-29T16:17:54.318Z,4333.00
2023-01-29T16:19:00.377Z,4216.00
2023-01-29T16:19:55.411Z,4216.00
2023-01-29T16:20:54.365Z,4233.00
2023-01-29T16:21:54.334Z,4297.00
2023-01-29T16:22:54.278Z,4501.00
2023-01-29T16:23:54.247Z,4717.00
2023-01-29T16:24:54.204Z,4784.00
2023-01-29T16:25:54.168Z,4744.00
2023-01-29T16:26:54.123Z,4778.00
2023-01-29T16:27:54.083Z,4605.00
2023-01-29T16:28:54.039Z,4456.00
2023-01-29T16:29:54.036Z,4426.00
2023-01-29T16:30:54.197Z,4465.00
2023-01-29T16:31:55.194Z,4467.00
2023-01-29T16:32:53.997Z,4483.00
2023-01-29T16:33:53.965Z,4576.00
2023-01-29T16:34:53.914Z,4790.00
2023-01-29T16:35:53.899Z,4982.00
2023-01-29T16:36:54.699Z,4858.00
2023-01-29T16:37:53.809Z,4775.00
2023-01-29T16:38:53.769Z,4749.00
2023-01-29T16:39:53.949Z,4726.00
2023-01-29T16:40:54.150Z,4744.00
2023-01-29T16:41:54.337Z,4681.00
2023-01-29T16:42:54.508Z,4632.00
2023-01-29T16:43:54.715Z,4517.00
2023-01-29T16:44:54.890Z,4514.00
2023-01-29T16:45:55.120Z,4659.00
2023-01-29T16:46:55.350Z,4923.00
2023-01-29T16:47:55.590Z,5009.00
2023-01-29T16:48:55.766Z,5006.00
2023-01-29T16:49:56.023Z,4930.00
2023-01-29T16:50:56.279Z,4864.00
2023-01-29T16:51:56.452Z,4764.00
2023-01-29T16:52:57.705Z,4584.00
2023-01-29T16:53:56.693Z,4485.00
2023-01-29T16:54:56.725Z,4434.00
2023-01-29T16:55:56.772Z,4436.00
2023-01-29T16:56:56.804Z,4447.00
2023-01-29T16:57:56.835Z,4402.00
2023-01-29T16:58:56.954Z,4409.00
2023-01-29T16:59:56.898Z,4516.00
2023-01-29T17:00:56.958Z,4627.00
2023-01-29T17:01:56.953Z,4619.00
2023-01-29T17:02:56.988Z,4580.00
2023-01-29T17:03:57.136Z,4560.00
2023-01-29T17:04:57.315Z,4600.00
2023-01-29T17:05:57.521Z,4657.00
2023-01-29T17:06:57.724Z,4607.00
2023-01-29T17:07:57.944Z,4546.00
2023-01-29T17:08:58.187Z,4534.00
2023-01-29T17:09:58.386Z,4554.00
2023-01-29T17:23:01.205Z,4597.00
2023-01-29T17:24:01.476Z,4568.00
2023-01-29T17:25:01.677Z,4571.00
2023-01-29T17:26:01.888Z,4423.00
2023-01-29T17:27:02.136Z,4375.00
2023-01-29T17:28:02.420Z,4456.00
2023-01-29T17:29:02.609Z,4602.00
2023-01-29T17:30:02.824Z,4663.00
2023-01-29T17:31:06.762Z,4727.00
2023-01-29T17:32:03.031Z,4730.00
2023-01-29T17:33:02.983Z,4748.00
2023-01-29T17:34:02.933Z,4801.00
2023-01-29T17:35:02.916Z,4902.00
2023-01-29T17:36:02.965Z,5014.00
2023-01-29T17:37:02.968Z,5026.00
2023-01-29T17:38:02.921Z,4935.00
2023-01-29T17:39:02.898Z,4908.00
2023-01-29T17:40:05.261Z,4899.00
2023-01-29T17:41:02.946Z,4937.00
2023-01-29T17:42:02.952Z,4909.00
2023-01-29T17:43:02.939Z,4904.00
2023-01-29T17:44:02.954Z,4845.00
2023-01-29T17:45:02.948Z,4668.00
2023-01-29T17:47:02.923Z,4674.00
2023-01-29T17:48:02.917Z,4656.00
2023-01-29T17:49:02.901Z,4645.00
2023-01-29T18:15:02.720Z,4306.00
2023-01-29T20:22:11.078Z,3924.00
2023-01-29T20:23:11.131Z,3957.00
2023-01-29T20:24:11.199Z,3926.00
2023-01-29T20:25:11.263Z,3812.00
2023-01-29T21:04:13.455Z,4082.00
2023-01-29T21:06:13.512Z,4363.00
2023-01-29T21:07:13.538Z,4421.00
2023-01-29T21:08:13.583Z,4320.00
2023-01-29T21:09:13.638Z,4504.00
2023-01-29T21:11:13.771Z,4554.00
2023-01-29T21:12:13.805Z,4356.00
2023-01-29T21:13:13.872Z,4388.00
2023-01-29T21:14:13.944Z,4603.00
2023-01-29T21:15:14.024Z,4746.00
2023-01-29T21:16:14.151Z,4621.00
2023-01-29T21:17:14.152Z,4508.00
2023-01-29T21:18:14.225Z,4489.00
2023-01-29T21:19:14.302Z,4417.00
2023-01-29T21:20:14.550Z,4141.00
2023-01-29T21:21:14.442Z,4065.00
2023-01-29T21:22:14.510Z,4077.00
2023-01-29T21:23:14.574Z,3975.00
2023-01-29T21:24:14.632Z,3832.00
2023-01-29T21:25:14.707Z,3755.00
2023-01-29T21:26:14.801Z,3792.00
2023-01-29T21:27:14.809Z,3853.00
2023-01-29T21:28:14.867Z,3977.00
2023-01-29T21:29:14.902Z,4068.00
2023-01-29T21:30:15.288Z,4102.00
2023-01-29T23:09:21.164Z,2977.00
2023-01-29T23:10:21.431Z,3075.00
2023-01-29T23:11:21.694Z,3155.00
2023-01-29T23:12:21.945Z,3186.00
2023-01-29T23:13:22.203Z,3161.00
2023-01-29T23:14:22.472Z,3076.00
2023-01-29T23:15:22.729Z,3102.00
2023-01-29T23:16:23.071Z,3090.00
2023-01-29T23:17:23.239Z,3018.00
2023-01-29T23:18:23.506Z,3104.00
2023-01-29T23:19:23.765Z,3119.00
2023-01-29T23:20:24.012Z,3169.00
2023-01-29T23:21:24.265Z,3239.00
2023-01-29T23:22:24.542Z,3276.00
2023-01-29T23:23:24.824Z,3242.00
2023-01-29T23:24:25.089Z,3288.00
2023-01-29T23:25:25.359Z,3378.00
2023-01-29T23:47:31.215Z,945.00
2023-01-29T23:48:31.461Z,975.00
2023-01-29T23:49:31.738Z,1327.00
2023-01-29T23:50:32.007Z,1475.00
2023-01-29T23:51:32.250Z,2083.00
2023-01-29T23:52:32.418Z,2289.00
2023-01-29T23:53:32.663Z,2495.00
2023-01-29T23:54:32.939Z,2495.00
2023-01-29T23:55:33.228Z,1984.00
2023-01-29T23:56:33.476Z,1660.00
2023-01-29T23:57:33.697Z,1191.00
2023-01-29T23:58:33.910Z,896.00
2023-01-29T23:59:34.140Z,714.00
